Time;durP1;ratioP1;P1;durP2;ratioP2;P2;SDS_P1;SDS_P2;PMS_P1;PMS_P2;Temp;Humidity;BMP_temperature;BMP_pressure;BME280_temperature;BME280_humidity;BME280_pressure;Samples;Min_cycle;Max_cycle;Signal;HPM_P1;HPM_P2
2022/04/07 03:59:02;;;;;;;8.88;6.72;;;;;;;12.65;54.94;98818.09;5605767;31;80885;-56
2022/04/07 04:02:06;;;;;;;10.68;6.75;;;;;;;12.65;54.94;98818.09;5583461;32;33368;-57
2022/04/07 04:05:09;;;;;;;9.18;6.25;;;;;;;12.33;54.37;98819.66;5583909;31;34295;-57
2022/04/07 04:08:11;;;;;;;9.38;6.43;;;;;;;12.48;54.48;98812.87;5583778;31;33554;-57
2022/04/07 04:11:13;;;;;;;10.00;6.78;;;;;;;12.58;53.88;98811.66;5583513;31;33877;-57
2022/04/07 04:14:15;;;;;;;8.50;6.22;;;;;;;12.54;53.94;98805.37;5583687;32;34287;-57
2022/04/07 04:17:18;;;;;;;12.43;6.53;;;;;;;12.62;54.03;98815.28;5583717;31;33690;-57
2022/04/07 04:20:20;;;;;;;10.18;6.28;;;;;;;12.56;54.95;98808.53;5583653;31;33816;-57
2022/04/07 04:23:22;;;;;;;12.37;6.47;;;;;;;12.53;55.02;98809.19;5583341;31;33654;-57
2022/04/07 04:26:24;;;;;;;8.95;6.30;;;;;;;12.63;54.43;98806.88;5582238;31;33756;-57
2022/04/07 04:29:27;;;;;;;12.15;6.60;;;;;;;12.74;53.57;98820.69;5563492;32;33591;-57
2022/04/07 04:32:29;;;;;;;9.73;6.75;;;;;;;12.69;54.17;98820.91;5563833;32;33705;-57
2022/04/07 04:35:32;;;;;;;16.35;7.05;;;;;;;12.69;54.67;98810.94;5577627;31;34313;-57
2022/04/07 04:38:34;;;;;;;12.63;6.93;;;;;;;12.67;54.79;98813.16;5582734;32;33579;-57
2022/04/07 04:41:36;;;;;;;9.68;6.97;;;;;;;12.85;53.50;98813.78;5582659;32;33773;-57
2022/04/07 04:44:38;;;;;;;8.90;6.80;;;;;;;12.90;54.10;98804.69;5583182;32;33815;-57
2022/04/07 04:47:41;;;;;;;12.18;8.52;;;;;;;12.87;54.25;98800.75;5583110;32;34248;-57
2022/04/07 04:50:43;;;;;;;10.10;6.50;;;;;;;12.91;54.15;98799.00;5582434;32;33936;-57
2022/04/07 04:53:45;;;;;;;12.82;7.40;;;;;;;12.99;53.38;98807.31;5583371;31;34504;-57
2022/04/07 04:56:47;;;;;;;14.95;7.68;;;;;;;12.94;54.00;98805.59;5581980;31;33660;-57
2022/04/07 04:59:50;;;;;;;12.23;7.43;;;;;;;13.01;53.54;98803.13;5579475;32;34326;-57
2022/04/07 05:02:52;;;;;;;10.52;7.15;;;;;;;13.12;53.19;98806.97;5580911;32;34198;-57
2022/04/07 05:05:54;;;;;;;10.05;6.78;;;;;;;13.11;53.27;98812.66;5582063;32;33746;-57
2022/04/07 05:08:57;;;;;;;12.63;7.25;;;;;;;13.07;54.91;98812.56;5575849;31;34546;-57
2022/04/07 05:11:59;;;;;;;12.60;7.72;;;;;;;13.05;53.04;98814.81;5569812;32;33639;-57
2022/04/07 05:15:03;;;;;;;10.38;7.90;;;;;;;13.10;53.65;98805.72;5569793;32;34365;-57
2022/04/07 05:18:06;;;;;;;10.98;7.20;;;;;;;13.19;52.49;98802.94;5570031;32;34039;-57
2022/04/07 05:21:08;;;;;;;10.35;6.87;;;;;;;13.27;52.78;98804.75;5569412;32;33627;-57
2022/04/07 05:24:10;;;;;;;13.45;7.47;;;;;;;13.42;52.00;98796.03;5564342;32;33738;-57
2022/04/07 05:27:12;;;;;;;9.40;6.78;;;;;;;13.38;52.79;98798.59;5561701;31;33729;-57
2022/04/07 05:30:18;;;;;;;11.48;7.03;;;;;;;13.39;51.72;98804.78;5560510;32;33589;-57
2022/04/07 05:33:20;;;;;;;12.65;7.75;;;;;;;13.52;50.99;98813.63;5567541;32;33857;-57
2022/04/07 05:36:22;;;;;;;9.88;6.93;;;;;;;13.52;50.97;98810.94;5560808;32;34354;-57
2022/04/07 05:39:24;;;;;;;9.77;7.43;;;;;;;13.56;51.00;98826.06;5560584;32;33805;-57
2022/04/07 05:42:27;;;;;;;9.32;6.32;;;;;;;13.61;50.84;98835.84;5556457;32;33894;-57
2022/04/07 05:45:29;;;;;;;13.07;7.45;;;;;;;13.68;50.95;98832.59;5568754;32;33647;-57
2022/04/07 05:48:31;;;;;;;12.65;7.78;;;;;;;13.70;50.75;98841.09;5565711;32;33688;-57
2022/04/07 05:51:33;;;;;;;9.45;7.07;;;;;;;13.72;50.53;98836.16;5554192;32;33680;-57
2022/04/07 05:54:36;;;;;;;8.43;6.30;;;;;;;13.65;51.02;98841.34;5568912;32;33672;-57
2022/04/07 05:57:38;;;;;;;10.45;7.07;;;;;;;13.59;51.42;98836.16;5566897;32;33670;-57
2022/04/07 06:00:41;;;;;;;11.00;7.50;;;;;;;13.69;50.75;98844.91;5553474;32;34294;-57
2022/04/07 06:03:43;;;;;;;10.93;7.57;;;;;;;13.71;50.88;98850.72;5548964;32;34061;-57
2022/04/07 06:06:45;;;;;;;9.35;7.22;;;;;;;13.69;51.76;98859.16;5551932;32;33563;-57
2022/04/07 06:09:48;;;;;;;12.90;7.90;;;;;;;13.78;50.67;98850.97;5568934;32;33636;-57
2022/04/07 06:12:50;;;;;;;13.00;8.00;;;;;;;13.72;50.62;98861.19;5566889;32;33693;-57
2022/04/07 06:15:52;;;;;;;12.23;7.07;;;;;;;13.59;52.36;98862.31;5568183;32;34230;-57
2022/04/07 06:18:55;;;;;;;10.85;7.35;;;;;;;13.65;52.17;98868.25;5568651;32;33265;-57
2022/04/07 06:21:57;;;;;;;14.40;7.70;;;;;;;13.73;52.42;98873.50;5567754;32;34384;-57
2022/04/07 06:24:59;;;;;;;12.77;7.37;;;;;;;13.80;51.62;98864.87;5567623;32;33824;-57
2022/04/07 06:28:04;;;;;;;20.23;7.65;;;;;;;13.76;53.30;98872.06;5554858;32;33609;-57
2022/04/07 06:31:06;;;;;;;18.52;8.35;;;;;;;13.77;53.46;98868.25;5549010;32;33611;-57
2022/04/07 06:34:08;;;;;;;20.23;9.55;;;;;;;13.74;53.27;98864.34;5549118;32;33671;-57
2022/04/07 06:37:10;;;;;;;22.23;9.35;;;;;;;13.81;53.53;98866.47;5564949;32;34389;-57
2022/04/07 06:40:13;;;;;;;91.12;15.77;;;;;;;13.83;53.50;98877.66;5567860;32;33544;-57
2022/04/07 06:43:15;;;;;;;25.08;9.23;;;;;;;14.04;51.08;98877.53;5566678;32;34041;-57
2022/04/07 06:46:18;;;;;;;24.48;9.77;;;;;;;14.05;50.37;98879.87;5567107;32;33758;-57
2022/04/07 06:49:20;;;;;;;17.17;8.93;;;;;;;14.10;51.13;98882.34;5567373;32;34163;-57
2022/04/07 06:52:22;;;;;;;14.40;8.20;;;;;;;14.06;50.85;98888.75;5568385;32;33283;-57
2022/04/07 06:55:25;;;;;;;10.63;7.78;;;;;;;14.02;50.54;98895.94;5566940;32;33761;-57
2022/04/07 06:58:27;;;;;;;14.18;8.10;;;;;;;14.07;50.36;98893.81;5567504;32;34428;-57
2022/04/07 07:01:29;;;;;;;14.30;8.30;;;;;;;14.05;49.76;98897.97;5557235;32;33738;-57
2022/04/07 07:04:36;;;;;;;13.27;8.52;;;;;;;14.05;49.81;98897.97;5548988;32;33726;-57
2022/04/07 07:07:38;;;;;;;13.18;8.40;;;;;;;14.02;50.73;98895.94;5548693;32;33700;-57
2022/04/07 07:10:42;;;;;;;12.02;8.05;;;;;;;14.17;49.99;98905.22;5548901;32;34307;-57
2022/04/07 07:13:44;;;;;;;13.60;8.27;;;;;;;14.44;48.39;98890.25;5560077;32;33686;-57
2022/04/07 07:16:48;;;;;;;12.35;7.78;;;;;;;14.48;47.97;98891.91;5568363;32;33628;-57
2022/04/07 07:19:50;;;;;;;11.05;7.72;;;;;;;14.48;48.63;98901.91;5563185;32;33747;-57
2022/04/07 07:22:57;;;;;;;13.25;7.60;;;;;;;14.56;48.06;98901.78;5548591;32;34373;-57
2022/04/07 07:26:00;;;;;;;12.30;7.55;;;;;;;14.43;48.43;98894.06;5548619;32;33598;-57
2022/04/07 07:29:02;;;;;;;10.35;7.68;;;;;;;14.31;49.23;98897.59;5548792;32;33446;-57
2022/04/07 07:32:05;;;;;;;11.43;8.18;;;;;;;14.43;49.01;98894.84;5548044;32;34246;-57
2022/04/07 07:35:09;;;;;;;9.77;7.05;;;;;;;14.55;48.44;98892.12;5548063;32;33714;-57
2022/04/07 07:38:12;;;;;;;15.10;7.57;;;;;;;14.64;48.36;98893.91;5548719;32;34980;-57
2022/04/07 07:41:14;;;;;;;12.20;7.20;;;;;;;14.80;48.07;98894.72;5547502;32;33595;-57
2022/04/07 07:44:16;;;;;;;9.02;6.82;;;;;;;14.65;48.55;98898.97;5547927;32;33485;-57
2022/04/07 07:47:19;;;;;;;14.68;7.53;;;;;;;14.86;48.50;98904.16;5547574;32;33441;-57
2022/04/07 07:50:21;;;;;;;11.65;7.00;;;;;;;14.75;48.14;98903.84;5548239;32;34286;-57
2022/04/07 07:53:25;;;;;;;11.88;7.10;;;;;;;14.60;47.81;98901.09;5562289;32;33619;-57
2022/04/07 07:56:27;;;;;;;10.52;6.53;;;;;;;14.48;49.30;98899.22;5557594;32;33612;-57
2022/04/07 07:59:37;;;;;;;10.50;6.80;;;;;;;14.52;48.10;98897.44;5560004;32;33739;-57
2022/04/07 08:02:40;;;;;;;10.05;6.65;;;;;;;14.63;47.90;98903.13;5557798;32;34775;-57
2022/04/07 08:05:42;;;;;;;8.75;6.25;;;;;;;14.82;48.05;98905.97;5567404;32;34464;-57
2022/04/07 08:08:44;;;;;;;10.10;6.82;;;;;;;14.66;48.15;98908.59;5567426;32;33444;-57
2022/04/07 08:11:54;;;;;;;9.95;6.43;;;;;;;14.59;47.98;98902.25;5567395;32;34407;-57
2022/04/07 08:14:56;;;;;;;12.27;7.07;;;;;;;14.60;48.45;98909.97;5567276;32;33783;-57
2022/04/07 08:17:59;;;;;;;10.50;8.18;;;;;;;14.85;48.20;98912.59;5564579;32;33886;-57
2022/04/07 08:21:01;;;;;;;10.70;7.87;;;;;;;14.68;48.38;98913.69;5562781;32;34180;-57
2022/04/07 08:24:04;;;;;;;11.32;7.72;;;;;;;14.77;48.21;98917.81;5560909;32;34374;-57
2022/04/07 08:27:06;;;;;;;16.27;9.52;;;;;;;14.70;48.79;98922.19;5566525;31;33790;-57
2022/04/07 08:30:10;;;;;;;11.27;8.52;;;;;;;14.38;49.23;98919.34;5567092;32;33930;-57
2022/04/07 08:33:12;;;;;;;14.30;9.45;;;;;;;14.48;49.66;98926.97;5567049;32;34182;-57
2022/04/07 08:36:14;;;;;;;16.48;9.20;;;;;;;14.38;49.41;98922.06;5565209;32;33654;-57
2022/04/07 08:39:16;;;;;;;19.02;8.65;;;;;;;14.65;49.52;98923.22;5565819;32;32498;-57
2022/04/07 08:42:21;;;;;;;12.85;8.35;;;;;;;14.48;49.95;98924.28;5565003;32;33239;-57
2022/04/07 08:45:25;;;;;;;8.55;7.65;;;;;;;14.61;49.71;98924.28;5564432;32;34245;-57
2022/04/07 08:48:29;;;;;;;15.02;7.93;;;;;;;14.76;48.18;98920.81;5564358;32;34381;-57
2022/04/07 08:51:31;;;;;;;12.23;8.23;;;;;;;14.83;48.55;98914.84;5566543;32;33879;-57
2022/04/07 08:54:34;;;;;;;13.68;8.35;;;;;;;14.56;49.04;98907.19;5564332;32;33598;-57
2022/04/07 08:57:37;;;;;;;11.48;8.00;;;;;;;14.69;49.19;98909.84;5565992;32;33641;-57
2022/04/07 09:00:39;;;;;;;13.70;8.18;;;;;;;14.75;49.03;98906.56;5567413;32;34354;-57
2022/04/07 09:03:44;;;;;;;12.63;8.10;;;;;;;14.54;50.12;98901.38;5568253;32;34254;-57
2022/04/07 09:06:47;;;;;;;13.27;7.82;;;;;;;14.81;49.70;98901.72;5557232;32;33667;-57
2022/04/07 09:09:58;;;;;;;18.35;8.43;;;;;;;14.96;49.36;98895.56;5558136;32;33844;-57
2022/04/07 09:13:04;;;;;;;11.35;8.02;;;;;;;14.91;48.97;98900.44;5568141;32;33591;-57
2022/04/07 09:16:12;;;;;;;12.65;8.40;;;;;;;15.09;49.15;98900.88;5558298;32;34281;-57
2022/04/07 09:19:19;;;;;;;13.40;7.85;;;;;;;15.16;49.00;98901.84;5551302;32;33757;-57
2022/04/07 09:22:30;;;;;;;20.67;8.98;;;;;;;14.93;50.16;98890.88;5563661;32;32087;-57
2022/04/07 09:25:32;;;;;;;15.35;8.07;;;;;;;14.94;51.02;98886.25;5563561;32;34371;-57
2022/04/07 09:28:35;;;;;;;11.35;8.43;;;;;;;15.17;49.25;98884.53;5567621;32;34774;-57
2022/04/07 09:31:39;;;;;;;15.80;8.35;;;;;;;14.92;49.62;98883.88;5565945;32;34461;-57
2022/04/07 09:34:42;;;;;;;19.60;8.50;;;;;;;14.85;49.75;98877.53;5568230;32;33614;-57
2022/04/07 09:37:44;;;;;;;11.27;8.10;;;;;;;14.87;50.05;98875.28;5566406;32;33710;-57
2022/04/07 09:40:46;;;;;;;15.05;8.35;;;;;;;14.92;51.16;98880.41;5567875;32;33786;-57
2022/04/07 09:43:58;;;;;;;26.83;8.55;;;;;;;15.05;50.89;98879.22;5568650;32;33314;-57
2022/04/07 09:47:10;;;;;;;11.27;7.18;;;;;;;15.04;50.54;98874.94;5568751;32;33692;-57
2022/04/07 09:50:29;;;;;;;12.73;6.93;;;;;;;15.18;48.21;98874.53;5568554;32;33763;-57
2022/04/07 09:53:37;;;;;;;10.70;6.95;;;;;;;15.18;49.15;98879.94;5561703;32;33645;-57
2022/04/07 09:56:40;;;;;;;9.27;7.20;;;;;;;15.14;48.34;98868.25;5564346;32;33262;-57
2022/04/07 09:59:42;;;;;;;15.70;7.72;;;;;;;15.29;49.05;98870.16;5559792;32;34245;-57
2022/04/07 10:02:45;;;;;;;9.02;7.53;;;;;;;15.39;48.89;98871.56;5567883;32;33955;-57
2022/04/07 10:05:48;;;;;;;10.32;6.85;;;;;;;15.43;49.17;98867.84;5566997;32;34365;-57
2022/04/07 10:08:50;;;;;;;13.20;7.30;;;;;;;15.24;48.88;98865.03;5565864;32;33271;-57
2022/04/07 10:11:54;;;;;;;10.45;6.97;;;;;;;15.29;49.29;98867.47;5566260;32;33757;-58
2022/04/07 10:14:56;;;;;;;10.95;6.95;;;;;;;15.15;48.75;98864.41;5567948;32;33904;-57
2022/04/07 10:18:04;;;;;;;10.65;7.47;;;;;;;15.34;49.44;98869.12;5569003;32;33419;-57
2022/04/07 10:21:17;;;;;;;10.80;6.20;;;;;;;15.19;48.38;98863.38;5563160;32;33626;-57
2022/04/07 10:24:33;;;;;;;10.95;6.50;;;;;;;15.34;48.03;98867.22;5568421;32;33430;-56
2022/04/07 10:27:57;;;;;;;;;;;;;;;15.37;47.69;98861.12;5569240;32;33391;-57
2022/04/07 10:31:12;;;;;;;9.80;5.87;;;;;;;15.27;47.53;98858.94;5567900;32;33827;-57
2022/04/07 10:34:30;;;;;;;12.40;6.45;;;;;;;15.48;47.19;98851.34;5566728;32;33729;-57
2022/04/07 10:37:47;;;;;;;9.30;6.50;;;;;;;15.65;46.92;98846.72;5568082;32;33216;-57
2022/04/07 10:40:50;;;;;;;8.82;6.62;;;;;;;15.92;47.79;98848.50;5568574;32;33764;-57
2022/04/07 10:44:16;;;;;;;9.70;5.97;;;;;;;15.94;47.27;98842.78;5561151;32;34367;-57
2022/04/07 10:47:26;;;;;;;;;;;;;;;16.21;46.44;98830.97;5556664;32;33694;-57
2022/04/07 10:50:29;;;;;;;9.85;6.55;;;;;;;16.33;45.56;98829.28;5563031;32;34575;-57
2022/04/07 10:53:33;;;;;;;11.00;6.75;;;;;;;16.10;46.50;98829.22;5568458;32;33842;-57
2022/04/07 10:56:36;;;;;;;9.77;7.03;;;;;;;16.31;46.54;98824.22;5555366;32;34369;-57
2022/04/07 10:59:40;;;;;;;8.93;6.47;;;;;;;16.17;45.39;98821.25;5560378;32;32362;-57
2022/04/07 11:02:43;;;;;;;16.83;7.78;;;;;;;16.30;45.80;98814.56;5558819;32;34357;-57
2022/04/07 11:05:58;;;;;;;9.55;7.50;;;;;;;16.36;45.65;98813.13;5562373;32;34508;-57
2022/04/07 11:09:17;;;;;;;13.00;7.80;;;;;;;16.24;45.18;98815.19;5568351;32;33620;-57
2022/04/07 11:12:28;;;;;;;10.35;7.35;;;;;;;16.10;45.97;98813.78;5567309;32;34355;-57
2022/04/07 11:15:48;;;;;;;19.12;8.98;;;;;;;16.15;46.72;98813.47;5568106;32;33886;-57
2022/04/07 11:19:07;;;;;;;23.60;8.57;;;;;;;16.44;46.11;98809.41;5567869;32;33806;-57
2022/04/07 11:22:12;;;;;;;18.17;8.95;;;;;;;16.55;46.64;98804.19;5568417;32;33779;-57
2022/04/07 11:25:15;;;;;;;13.75;8.90;;;;;;;16.51;45.96;98806.06;5566979;32;34251;-57
2022/04/07 11:28:19;;;;;;;12.95;8.73;;;;;;;16.52;46.80;98814.97;5567924;32;33761;-57
2022/04/07 11:31:45;;;;;;;9.63;7.47;;;;;;;16.62;46.73;98806.25;5567901;32;33682;-57
2022/04/07 11:34:51;;;;;;;;;;;;;;;16.74;46.81;98799.91;5568492;32;34301;-57
2022/04/07 11:37:53;;;;;;;10.73;7.95;;;;;;;16.96;45.46;98804.59;5566528;32;34670;-57
2022/04/07 11:41:07;;;;;;;13.20;8.10;;;;;;;16.91;45.45;98799.47;5566841;32;33646;-57
2022/04/07 11:44:11;;;;;;;13.65;7.70;;;;;;;16.93;44.88;98794.47;5568127;32;33805;-57
2022/04/07 11:47:25;;;;;;;10.57;7.55;;;;;;;16.95;44.49;98800.31;5563021;32;34600;-57
2022/04/07 11:50:28;;;;;;;12.45;8.25;;;;;;;17.03;43.55;98790.41;5567745;32;33755;-57
2022/04/07 11:53:30;;;;;;;10.50;6.97;;;;;;;17.03;44.36;98779.56;5567916;32;34189;-57
2022/04/07 11:56:34;;;;;;;10.93;7.75;;;;;;;16.84;44.07;98781.19;5567962;32;33747;-57
2022/04/07 11:59:37;;;;;;;10.80;7.53;;;;;;;16.85;43.82;98784.66;5567643;32;33888;-57
2022/04/07 12:02:39;;;;;;;13.15;7.12;;;;;;;17.07;43.84;98793.94;5567887;32;33695;-57
2022/04/07 12:05:44;;;;;;;12.75;8.23;;;;;;;17.02;44.36;98776.06;5567665;32;33673;-57
2022/04/07 12:08:47;;;;;;;10.77;7.70;;;;;;;17.01;43.35;98784.53;5567726;32;33814;-57
2022/04/07 12:11:49;;;;;;;12.23;6.87;;;;;;;17.10;43.21;98779.69;5567592;32;33744;-57
2022/04/07 12:14:52;;;;;;;8.60;6.62;;;;;;;17.21;44.32;98772.50;5567602;32;34277;-57
2022/04/07 12:18:02;;;;;;;13.25;7.70;;;;;;;17.22;43.24;98768.66;5567578;32;33662;-57
2022/04/07 12:21:09;;;;;;;10.05;6.93;;;;;;;17.20;43.48;98773.66;5568044;32;33745;-57
2022/04/07 12:24:13;;;;;;;11.32;6.47;;;;;;;17.25;43.37;98765.22;5568054;32;33617;-57
2022/04/07 12:27:30;;;;;;;13.48;6.35;;;;;;;17.36;43.15;98749.91;5569738;31;34125;-57
2022/04/07 12:30:46;;;;;;;8.27;5.78;;;;;;;17.34;42.72;98757.59;5569751;32;34556;-57
2022/04/07 12:33:49;;;;;;;9.25;6.43;;;;;;;17.32;43.01;98762.62;5569890;32;33663;-57
2022/04/07 12:36:52;;;;;;;12.15;7.03;;;;;;;17.30;42.50;98756.78;5569856;32;33678;-57
2022/04/07 12:40:00;;;;;;;10.02;6.05;;;;;;;17.31;43.44;98746.72;5570119;32;33618;-57
2022/04/07 12:43:03;;;;;;;8.90;6.60;;;;;;;17.39;41.93;98734.84;5569057;32;33678;-57
2022/04/07 12:46:07;;;;;;;10.55;6.28;;;;;;;17.43;41.86;98734.91;5569873;32;34225;-57
2022/04/07 12:49:10;;;;;;;7.85;6.20;;;;;;;17.58;42.21;98732.03;5569900;32;34355;-57
2022/04/07 12:52:14;;;;;;;7.78;5.60;;;;;;;17.73;40.91;98735.69;5570165;32;34357;-57
2022/04/07 12:55:17;;;;;;;12.50;6.55;;;;;;;17.75;41.87;98743.47;5570010;32;33713;-57
2022/04/07 12:58:26;;;;;;;9.18;6.70;;;;;;;17.67;40.67;98723.59;5569805;32;33824;-57
2022/04/07 13:01:32;;;;;;;11.77;5.75;;;;;;;17.64;40.26;98710.00;5570027;32;33631;-57
2022/04/07 13:04:49;;;;;;;9.13;6.25;;;;;;;17.70;40.07;98706.63;5570118;32;33650;-57
2022/04/07 13:07:52;;;;;;;12.60;5.72;;;;;;;17.83;41.37;98704.47;5569916;32;33708;-57
2022/04/07 13:10:55;;;;;;;10.55;5.93;;;;;;;17.86;40.82;98690.19;5569536;32;33649;-57
2022/04/07 13:13:58;;;;;;;7.53;5.37;;;;;;;17.93;40.00;98690.28;5559988;32;33802;-58
2022/04/07 13:17:03;;;;;;;10.10;5.10;;;;;;;17.95;39.91;98693.41;5560783;32;34128;-57
2022/04/07 13:20:06;;;;;;;9.07;5.45;;;;;;;17.99;40.13;98699.63;5567081;32;33811;-57
2022/04/07 13:23:10;;;;;;;8.82;5.43;;;;;;;18.18;39.25;98695.16;5569144;32;33692;-57
2022/04/07 13:26:14;;;;;;;10.15;5.40;;;;;;;18.17;38.89;98691.69;5567374;32;32287;-57
2022/04/07 13:29:16;;;;;;;8.63;5.15;;;;;;;18.13;38.72;98693.59;5568935;32;33677;-57
2022/04/07 13:32:22;;;;;;;10.35;5.30;;;;;;;18.12;39.75;98693.97;5569355;32;34397;-57
2022/04/07 13:35:24;;;;;;;;;;;;;;;18.14;39.70;98691.66;5569794;32;34214;-57
2022/04/07 13:38:27;;;;;;;7.45;4.95;;;;;;;18.16;39.81;98683.94;5569428;32;33905;-57
2022/04/07 13:41:29;;;;;;;8.65;5.68;;;;;;;18.05;39.80;98678.41;5569154;32;33694;-57
2022/04/07 13:44:33;;;;;;;10.05;5.40;;;;;;;17.97;39.56;98685.66;5564988;32;34386;-57
2022/04/07 13:47:35;;;;;;;16.23;5.57;;;;;;;18.03;39.67;98681.47;5556790;32;34529;-57
2022/04/07 13:50:40;;;;;;;10.13;5.43;;;;;;;18.03;38.78;98678.75;5559039;32;34235;-57
2022/04/07 13:53:42;;;;;;;7.35;5.05;;;;;;;17.93;39.00;98675.94;5561287;32;34150;-57
2022/04/07 13:56:45;;;;;;;7.07;4.78;;;;;;;17.98;40.30;98656.62;5558356;32;34315;-57
2022/04/07 13:59:47;;;;;;;9.27;4.85;;;;;;;17.96;40.13;98659.72;5554793;32;33749;-58
2022/04/07 14:02:50;;;;;;;10.30;5.40;;;;;;;18.09;42.30;98660.22;5556134;32;34375;-57
2022/04/07 14:05:55;;;;;;;7.90;5.32;;;;;;;18.10;40.70;98658.28;5568938;32;33757;-58
2022/04/07 14:08:57;;;;;;;8.02;4.93;;;;;;;18.04;39.87;98652.41;5569256;32;33760;-57
2022/04/07 14:11:59;;;;;;;6.78;4.82;;;;;;;18.13;40.11;98644.00;5569045;32;33326;-57
2022/04/07 14:15:02;;;;;;;6.30;4.47;;;;;;;18.19;39.94;98637.09;5569319;32;33726;-58
2022/04/07 14:18:07;;;;;;;6.65;4.72;;;;;;;18.21;40.58;98630.16;5568456;32;34570;-58
2022/04/07 14:21:12;;;;;;;10.73;5.32;;;;;;;18.23;40.61;98619.69;5559874;32;33763;-57
2022/04/07 14:24:14;;;;;;;6.80;5.30;;;;;;;18.19;40.59;98616.16;5563808;32;33640;-57
2022/04/07 14:27:18;;;;;;;11.00;5.40;;;;;;;18.14;40.31;98616.50;5561984;31;34290;-57
2022/04/07 14:30:20;;;;;;;7.82;5.15;;;;;;;18.15;41.13;98604.50;5552941;32;34313;-57
2022/04/07 14:33:22;;;;;;;9.32;5.07;;;;;;;18.14;42.62;98610.28;5555618;32;34339;-57
2022/04/07 14:36:25;;;;;;;8.43;5.10;;;;;;;18.19;41.82;98607.25;5555907;32;34916;-57
2022/04/07 14:39:27;;;;;;;9.10;4.93;;;;;;;18.27;40.96;98603.44;5567537;32;34385;-57
2022/04/07 14:42:29;;;;;;;8.82;5.43;;;;;;;18.36;41.15;98603.12;5566595;32;34474;-57
2022/04/07 14:45:37;;;;;;;9.20;5.95;;;;;;;18.50;40.78;98604.00;5558304;32;33766;-57
2022/04/07 14:48:40;;;;;;;7.45;5.20;;;;;;;18.49;41.42;98596.25;5568977;32;33727;-58
2022/04/07 14:51:42;;;;;;;11.68;5.45;;;;;;;18.61;41.95;98593.25;5569037;32;33248;-57
2022/04/07 14:54:45;;;;;;;10.45;5.70;;;;;;;18.58;40.50;98593.22;5568801;32;34352;-57
2022/04/07 14:57:47;;;;;;;9.95;5.62;;;;;;;18.60;40.85;98586.25;5568808;32;33663;-57
2022/04/07 15:00:49;;;;;;;9.98;5.78;;;;;;;18.57;42.23;98578.84;5568868;32;33773;-57
2022/04/07 15:03:52;;;;;;;9.25;6.12;;;;;;;18.55;40.76;98573.81;5569017;32;33674;-57
2022/04/07 15:06:54;;;;;;;9.20;4.95;;;;;;;18.56;40.58;98563.75;5568844;32;34313;-57
2022/04/07 15:09:56;;;;;;;14.00;6.05;;;;;;;18.57;41.68;98568.00;5568736;32;33827;-57
2022/04/07 15:12:59;;;;;;;6.62;4.97;;;;;;;18.63;41.76;98571.94;5568963;32;34444;-57
2022/04/07 15:16:02;;;;;;;8.35;5.93;;;;;;;18.64;41.24;98568.09;5568940;32;33705;-57
2022/04/07 15:19:08;;;;;;;7.35;5.32;;;;;;;18.48;39.50;98576.50;5568924;32;34367;-58
2022/04/07 15:22:10;;;;;;;8.05;5.35;;;;;;;18.34;39.93;98576.37;5568791;32;34096;-57
2022/04/07 15:25:12;;;;;;;7.40;5.00;;;;;;;18.41;40.82;98571.03;5568845;32;33691;-58
2022/04/07 15:28:16;;;;;;;7.45;5.18;;;;;;;18.53;40.22;98580.78;5568826;32;33681;-58
2022/04/07 15:31:19;;;;;;;8.88;5.12;;;;;;;18.50;40.27;98585.00;5568648;32;34391;-57
2022/04/07 15:34:21;;;;;;;8.93;4.90;;;;;;;18.51;41.03;98593.97;5568691;32;33864;-58
2022/04/07 15:37:25;;;;;;;7.37;4.50;;;;;;;18.52;41.09;98588.16;5568466;32;34316;-58
2022/04/07 15:40:27;;;;;;;8.63;4.90;;;;;;;18.44;41.16;98581.13;5568648;32;33684;-57
